Time;durP1;ratioP1;P1;durP2;ratioP2;P2;SDS_P1;SDS_P2;PMS_P1;PMS_P2;Temp;Humidity;BMP_temperature;BMP_pressure;BME280_temperature;BME280_humidity;BME280_pressure;Samples;Min_cycle;Max_cycle;Signal;HPM_P1;HPM_P2
2023/09/11 00:00:19;;;;;;;;;15.67;15.67;;;;;28.06;47.87;101150.28;5064198;27;68725;-57
2023/09/11 00:02:44;;;;;;;;;20.67;16.33;;;;;28.02;48.05;101146.22;5075263;28;45543;-58
2023/09/11 00:05:10;;;;;;;;;18.00;18.00;;;;;27.99;48.31;101146.53;5077866;28;45535;-57
2023/09/11 00:07:36;;;;;;;;;21.33;19.67;;;;;27.96;48.49;101144.19;5075035;28;46620;-58
2023/09/11 00:10:01;;;;;;;;;17.67;16.67;;;;;27.91;48.97;101141.97;5064846;27;45304;-58
2023/09/11 00:12:26;;;;;;;;;20.67;17.00;;;;;27.89;48.75;101144.91;5071497;28;45799;-58
2023/09/11 00:14:52;;;;;;;;;19.67;19.00;;;;;27.87;48.56;101143.38;5072856;27;69436;-58
2023/09/11 00:17:17;;;;;;;;;17.00;17.00;;;;;27.86;48.93;101145.28;5068035;27;75499;-57
2023/09/11 00:19:42;;;;;;;;;19.67;18.67;;;;;27.84;48.95;101138.28;5071182;27;71472;-58
2023/09/11 00:22:07;;;;;;;;;18.67;18.67;;;;;27.80;48.68;101134.22;5068255;28;52882;-58
2023/09/11 00:24:33;;;;;;;;;20.67;19.33;;;;;27.78;49.02;101139.03;5073449;28;68773;-58
2023/09/11 00:26:58;;;;;;;;;20.00;19.00;;;;;27.74;49.13;101138.53;5071018;28;70265;-58
2023/09/11 00:29:23;;;;;;;;;19.33;19.33;;;;;27.70;49.63;101134.47;5067251;27;45720;-57
2023/09/11 00:31:49;;;;;;;;;17.00;17.00;;;;;27.67;49.52;101137.56;5089749;27;60010;-58
2023/09/11 00:34:14;;;;;;;;;18.00;17.33;;;;;27.65;49.77;101131.44;5082847;27;45722;-58
2023/09/11 00:36:39;;;;;;;;;20.33;18.67;;;;;27.61;49.39;101130.94;5091512;27;74947;-58
2023/09/11 00:39:05;;;;;;;;;21.00;18.00;;;;;27.59;49.74;101140.34;5095674;27;61178;-58
2023/09/11 00:41:30;;;;;;;;;19.33;19.33;;;;;27.57;49.79;101129.59;5093929;27;64529;-57
2023/09/11 00:43:55;;;;;;;;;19.67;17.00;;;;;27.55;49.94;101127.06;5085189;27;67662;-57
2023/09/11 00:46:21;;;;;;;;;24.00;24.00;;;;;27.55;49.90;101127.06;5078764;27;75705;-58
2023/09/11 00:48:51;;;;;;;;;17.67;17.67;;;;;27.53;50.33;101134.59;5064923;28;45427;-58
2023/09/11 00:51:17;;;;;;;;;19.00;17.67;;;;;27.51;49.97;101127.63;5085279;27;45485;-57
2023/09/11 00:53:43;;;;;;;;;20.00;18.67;;;;;27.50;50.04;101120.44;5089371;27;63709;-57
2023/09/11 00:56:08;;;;;;;;;16.67;15.33;;;;;27.47;50.38;101129.84;5069513;27;45969;-57
2023/09/11 00:58:33;;;;;;;;;18.67;18.33;;;;;27.45;50.26;101125.59;5089951;27;57904;-57
2023/09/11 01:00:59;;;;;;;;;21.67;20.33;;;;;27.43;50.43;101131.25;5090237;27;45532;-58
2023/09/11 01:03:24;;;;;;;;;17.00;16.00;;;;;27.40;50.65;101131.59;5080859;27;45401;-57
2023/09/11 01:05:50;;;;;;;;;18.33;17.67;;;;;27.38;50.93;101130.94;5092639;27;66811;-58
2023/09/11 01:08:16;;;;;;;;;16.67;16.67;;;;;27.36;50.88;101125.59;5083344;27;45352;-58
2023/09/11 01:10:41;;;;;;;;;22.00;21.00;;;;;27.34;51.14;101130.41;5073194;27;64139;-58
2023/09/11 01:13:06;;;;;;;;;22.33;17.00;;;;;27.33;50.90;101116.94;5069411;27;67563;-58
2023/09/11 01:15:38;;;;;;;;;18.00;16.33;;;;;27.31;51.08;101121.72;5088425;27;45937;-57
2023/09/11 01:18:14;;;;;;;;;22.00;18.67;;;;;27.30;51.15;101123.59;5076110;27;45471;-57
2023/09/11 01:21:00;;;;;;;;;19.67;18.67;;;;;27.27;50.75;101121.22;5081289;27;45470;-57
2023/09/11 01:23:52;;;;;;;;;20.00;18.00;;;;;27.27;51.08;101117.63;5075723;28;45302;-58
2023/09/11 01:26:37;;;;;;;;;19.33;19.00;;;;;27.27;51.26;101125.84;5060997;27;46399;-57
2023/09/11 01:29:20;;;;;;;;;18.00;18.00;;;;;27.27;51.41;101123.09;5088919;27;45327;-57
2023/09/11 01:31:46;;;;;;;;;20.67;20.67;;;;;27.24;51.02;101119.69;5070232;27;45379;-58
2023/09/11 01:34:12;;;;;;;;;19.67;19.00;;;;;27.26;51.12;101116.81;5088815;27;48492;-57
2023/09/11 01:36:38;;;;;;;;;23.00;21.33;;;;;27.24;51.33;101121.59;5086264;27;45569;-58
2023/09/11 01:39:04;;;;;;;;;19.33;18.00;;;;;27.23;51.27;101117.13;5080685;27;45468;-57
2023/09/11 01:41:35;;;;;;;;;20.00;18.00;;;;;27.22;51.43;101121.75;5082143;27;45331;-58
2023/09/11 01:44:07;;;;;;;;;23.00;20.67;;;;;27.20;51.52;101125.69;5073931;27;45721;-57
2023/09/11 01:46:32;;;;;;;;;22.00;19.00;;;;;27.17;51.16;101124.19;5079731;27;45537;-58
2023/09/11 01:48:59;;;;;;;;;18.33;17.67;;;;;27.14;51.61;101127.25;5088772;27;45382;-58
2023/09/11 01:51:24;;;;;;;;;20.33;17.33;;;;;27.13;52.08;101127.44;5081685;27;66662;-58
2023/09/11 01:53:50;;;;;;;;;19.67;19.00;;;;;27.10;51.76;101134.09;5071184;27;70292;-57
2023/09/11 01:56:15;;;;;;;;;16.33;16.33;;;;;27.07;51.54;101129.84;5073348;27;46027;-58
2023/09/11 01:58:43;;;;;;;;;20.00;17.33;;;;;27.03;51.70;101131.22;5095279;27;67795;-58
2023/09/11 02:01:08;;;;;;;;;17.33;16.00;;;;;27.01;50.91;101126.97;5087710;27;45490;-57
2023/09/11 02:03:33;;;;;;;;;16.67;15.33;;;;;26.98;50.38;101135.53;5080906;27;68728;-58
2023/09/11 02:05:59;;;;;;;;;16.00;15.00;;;;;26.95;50.35;101127.69;5080184;27;74565;-58
2023/09/11 02:08:24;;;;;;;;;17.00;15.33;;;;;26.92;50.24;101123.41;5078544;27;49500;-58
2023/09/11 02:10:49;;;;;;;;;15.67;13.67;;;;;26.90;49.78;101130.94;5087682;27;45589;-58
2023/09/11 02:13:15;;;;;;;;;16.67;13.33;;;;;26.87;49.72;101134.00;5090822;27;45912;-57
2023/09/11 02:15:40;;;;;;;;;15.33;15.33;;;;;26.84;49.54;101132.53;5083648;27;46042;-58
2023/09/11 02:18:05;;;;;;;;;14.67;14.00;;;;;26.82;49.56;101136.44;5094532;27;73001;-57
2023/09/11 02:20:31;;;;;;;;;14.67;13.00;;;;;26.78;49.18;101133.22;5084924;27;66577;-57
2023/09/11 02:22:56;;;;;;;;;12.33;12.33;;;;;26.76;49.53;101137.13;5087318;27;68706;-57
2023/09/11 02:25:21;;;;;;;;;13.33;13.33;;;;;26.73;49.22;101128.28;5095509;27;74192;-58
2023/09/11 02:27:47;;;;;;;;;13.00;13.00;;;;;26.74;49.46;101127.25;5095662;27;45782;-58
2023/09/11 02:30:12;;;;;;;;;15.67;13.33;;;;;26.72;48.62;101129.28;5087178;27;66377;-57
2023/09/11 02:32:37;;;;;;;;;16.00;13.67;;;;;26.71;48.46;101129.44;5083147;27;46072;-57
2023/09/11 02:35:03;;;;;;;;;15.00;14.67;;;;;26.68;49.14;101127.06;5084717;27;60963;-57
2023/09/11 02:37:28;;;;;;;;;16.33;13.67;;;;;26.64;49.20;101125.72;5084299;27;45704;-57
2023/09/11 02:39:54;;;;;;;;;15.33;14.00;;;;;26.62;49.01;101125.03;5088363;27;45296;-57
2023/09/11 02:42:19;;;;;;;;;15.67;13.67;;;;;26.57;49.02;101118.22;5090606;27;45466;-57
2023/09/11 02:44:45;;;;;;;;;11.00;11.00;;;;;26.56;48.50;101121.13;5090242;27;70401;-57
2023/09/11 02:47:11;;;;;;;;;14.67;14.00;;;;;26.54;48.76;101120.44;5089570;27;45541;-57
2023/09/11 02:49:36;;;;;;;;;15.33;13.33;;;;;26.53;49.16;101129.66;5092980;27;45580;-58
2023/09/11 02:52:01;;;;;;;;;14.67;14.00;;;;;26.51;49.29;101129.00;5084906;27;69548;-57
2023/09/11 02:54:27;;;;;;;;;15.00;13.67;;;;;26.47;48.61;101119.47;5096081;27;47078;-57
2023/09/11 02:56:52;;;;;;;;;14.33;13.00;;;;;26.44;48.66;101104.31;5092921;27;57378;-57
2023/09/11 02:59:17;;;;;;;;;14.67;14.67;;;;;26.41;49.30;101110.94;5091430;27;45738;-57
2023/09/11 03:01:43;;;;;;;;;14.00;14.00;;;;;26.39;49.20;101112.16;5090696;27;47100;-57
2023/09/11 03:04:08;;;;;;;;;12.33;12.00;;;;;26.37;49.18;101109.59;5089109;27;47118;-57
2023/09/11 03:06:33;;;;;;;;;13.67;13.67;;;;;26.36;49.10;101110.63;5098970;27;45357;-57
2023/09/11 03:08:59;;;;;;;;;16.00;13.33;;;;;26.33;48.96;101116.41;5097754;27;63799;-62
2023/09/11 03:11:24;;;;;;;;;15.00;14.00;;;;;26.32;49.43;101117.44;5089192;27;56180;-57
2023/09/11 03:13:49;;;;;;;;;16.67;13.67;;;;;26.29;49.45;101109.59;5086013;27;70859;-57
2023/09/11 03:16:16;;;;;;;;;15.67;14.67;;;;;26.29;49.66;101111.47;5088681;27;45389;-57
2023/09/11 03:18:41;;;;;;;;;15.33;13.67;;;;;26.25;49.77;101100.91;5089086;27;45312;-58
2023/09/11 03:21:07;;;;;;;;;14.33;13.33;;;;;26.23;49.61;101100.25;5091413;27;59828;-57
2023/09/11 03:23:33;;;;;;;;;16.00;14.67;;;;;26.23;50.03;101094.78;5085150;27;46977;-57
2023/09/11 03:25:58;;;;;;;;;13.00;13.00;;;;;26.22;49.58;101084.91;5084156;27;45487;-57
2023/09/11 03:28:28;;;;;;;;;12.67;12.67;;;;;26.20;49.35;101084.22;5069467;27;45798;-58
2023/09/11 03:30:54;;;;;;;;;17.33;16.00;;;;;26.18;49.11;101082.69;5091600;27;45475;-57
2023/09/11 03:33:19;;;;;;;;;9.67;9.67;;;;;26.17;49.36;101078.28;5095103;27;45510;-57
2023/09/11 03:35:48;;;;;;;;;16.33;13.00;;;;;26.14;49.55;101079.47;5086458;27;45488;-57
2023/09/11 03:38:14;;;;;;;;;16.67;15.00;;;;;26.13;49.35;101075.03;5095192;27;46462;-57
2023/09/11 03:40:39;;;;;;;;;13.67;13.67;;;;;26.12;49.62;101080.69;5090930;27;45477;-58
2023/09/11 03:43:05;;;;;;;;;16.67;13.00;;;;;26.08;49.64;101077.44;5099271;27;45391;-57
2023/09/11 03:45:30;;;;;;;;;11.00;11.00;;;;;26.05;49.52;101075.06;5071426;27;45501;-57
2023/09/11 03:47:55;;;;;;;;;11.33;11.33;;;;;26.01;48.63;101073.66;5087714;27;46060;-57
2023/09/11 03:50:21;;;;;;;;;14.67;12.67;;;;;25.99;49.36;101065.66;5090706;27;60177;-57
2023/09/11 03:52:46;;;;;;;;;13.00;13.00;;;;;25.95;48.68;101067.03;5062502;27;73824;-57
2023/09/11 03:55:11;;;;;;;;;15.00;13.67;;;;;25.91;48.89;101068.41;5069960;27;67377;-57
2023/09/11 03:57:36;;;;;;;;;14.33;13.67;;;;;25.87;49.29;101059.72;5092851;27;66755;-57
2023/09/11 04:00:07;;;;;;;;;12.00;12.00;;;;;25.85;49.33;101066.34;5085940;27;66829;-57
2023/09/11 04:02:33;;;;;;;;;9.33;9.33;;;;;25.83;49.78;101061.06;5095269;27;46453;-57
2023/09/11 04:04:58;;;;;;;;;11.33;11.33;;;;;25.81;48.74;101060.38;5095418;27;45264;-57
2023/09/11 04:07:23;;;;;;;;;16.33;11.67;;;;;25.78;49.15;101057.16;5073324;27;45413;-57
2023/09/11 04:09:49;;;;;;;;;14.67;11.67;;;;;25.74;49.23;101054.78;5072397;27;45367;-57
2023/09/11 04:12:16;;;;;;;;;12.67;12.00;;;;;25.71;49.41;101051.56;5086002;27;72520;-57
2023/09/11 04:14:42;;;;;;;;;11.00;10.00;;;;;25.67;48.98;101048.31;5087576;27;45409;-57
2023/09/11 04:17:10;;;;;;;;;11.67;11.67;;;;;25.64;49.28;101048.63;5072912;28;45443;-56
2023/09/11 04:19:36;;;;;;;;;12.33;11.00;;;;;25.63;49.13;101046.97;5070459;27;45614;-57
2023/09/11 04:22:01;;;;;;;;;14.00;13.67;;;;;25.61;49.02;101040.81;5090941;27;46126;-57
2023/09/11 04:24:27;;;;;;;;;11.67;10.67;;;;;25.58;49.25;101042.00;5098864;27;45374;-57
2023/09/11 04:26:52;;;;;;;;;13.00;11.00;;;;;25.57;49.06;101036.75;5086354;27;66081;-57
2023/09/11 04:29:20;;;;;;;;;10.33;10.33;;;;;25.56;48.95;101044.03;5088370;27;67489;-57
2023/09/11 04:31:45;;;;;;;;;13.00;11.33;;;;;25.57;49.12;101042.19;5094302;27;46400;-57
2023/09/11 04:34:11;;;;;;;;;14.33;11.00;;;;;25.53;49.64;101032.66;5062023;28;62240;-56
2023/09/11 04:36:37;;;;;;;;;12.67;12.67;;;;;25.53;49.84;101038.94;5097988;27;46341;-59
2023/09/11 04:39:04;;;;;;;;;10.67;10.67;;;;;25.52;49.16;101030.94;5090324;27;45381;-57
2023/09/11 04:41:29;;;;;;;;;15.00;13.33;;;;;25.51;49.16;101035.53;5087769;27;46332;-57
2023/09/11 04:43:55;;;;;;;;;10.33;10.33;;;;;25.49;49.54;101029.41;5084294;27;46675;-57
2023/09/11 04:46:20;;;;;;;;;14.33;13.00;;;;;25.49;50.19;101031.28;5079165;27;45458;-57
2023/09/11 04:48:45;;;;;;;;;14.67;12.67;;;;;25.48;49.56;101030.44;5094218;27;51881;-57
2023/09/11 04:51:11;;;;;;;;;14.33;14.33;;;;;25.46;50.05;101037.06;5085679;27;65006;-57
2023/09/11 04:53:36;;;;;;;;;12.33;11.67;;;;;25.42;50.65;101034.69;5093671;27;45659;-57
2023/09/11 04:56:01;;;;;;;;;14.33;13.00;;;;;25.42;50.15;101031.09;5096203;27;69104;-57
2023/09/11 04:58:28;;;;;;;;;17.33;15.33;;;;;25.41;50.56;101040.31;5079733;27;45520;-57
2023/09/11 05:00:53;;;;;;;;;15.00;15.00;;;;;25.40;50.63;101034.00;5065101;27;45478;-57
2023/09/11 05:03:18;;;;;;;;;18.33;17.33;;;;;25.38;51.50;101029.75;5080379;27;45376;-57
2023/09/11 05:05:44;;;;;;;;;14.67;14.33;;;;;25.36;51.66;101032.63;5088249;27;45548;-57
2023/09/11 05:08:09;;;;;;;;;20.67;18.00;;;;;25.35;51.74;101040.97;5088696;27;70544;-57
2023/09/11 05:10:40;;;;;;;;;17.33;15.33;;;;;25.34;51.90;101031.06;5084150;27;47135;-57
2023/09/11 05:13:05;;;;;;;;;18.00;16.33;;;;;25.34;51.65;101028.34;5076208;27;45439;-57
2023/09/11 05:15:31;;;;;;;;;14.00;14.00;;;;;25.32;51.30;101028.53;5087192;27;65843;-57
2023/09/11 05:17:56;;;;;;;;;15.33;15.00;;;;;25.31;51.35;101032.25;5086142;27;67488;-57
2023/09/11 05:20:21;;;;;;;;;17.33;16.33;;;;;25.30;52.19;101029.72;5085997;27;73907;-57
2023/09/11 05:22:47;;;;;;;;;15.67;15.67;;;;;25.31;51.91;101034.13;5090442;27;69233;-57
2023/09/11 05:25:12;;;;;;;;;18.33;16.33;;;;;25.29;51.64;101042.44;5082521;27;62308;-57
2023/09/11 05:27:37;;;;;;;;;15.00;15.00;;;;;25.26;51.94;101040.06;5082287;27;45401;-56
2023/09/11 05:30:03;;;;;;;;;15.00;15.00;;;;;25.25;52.23;101052.84;5082218;27;46047;-57
2023/09/11 05:32:28;;;;;;;;;16.67;13.33;;;;;25.23;51.25;101045.88;5081897;27;45476;-57
2023/09/11 05:34:54;;;;;;;;;16.33;14.33;;;;;25.25;51.39;101039.22;5081364;27;45727;-57
2023/09/11 05:37:19;;;;;;;;;16.00;15.00;;;;;25.27;51.93;101047.22;5081889;27;45412;-57
2023/09/11 05:39:46;;;;;;;;;14.00;14.00;;;;;25.26;51.48;101043.63;5082596;27;47136;-57
2023/09/11 05:42:11;;;;;;;;;12.33;10.33;;;;;25.29;51.61;101044.34;5065935;28;45395;-57
2023/09/11 05:44:36;;;;;;;;;16.00;13.00;;;;;25.29;51.18;101042.44;5086543;27;45925;-56
2023/09/11 05:47:03;;;;;;;;;13.67;13.00;;;;;25.31;51.34;101054.03;5085980;27;45533;-56
2023/09/11 05:49:28;;;;;;;;;12.67;12.67;;;;;25.33;51.06;101059.31;5081542;27;45773;-57
2023/09/11 05:51:54;;;;;;;;;12.67;12.67;;;;;25.35;51.36;101058.16;5088248;27;45570;-57
2023/09/11 05:54:19;;;;;;;;;13.33;11.33;;;;;25.37;51.02;101058.84;5081630;27;45353;-57
2023/09/11 05:56:44;;;;;;;;;15.33;13.00;;;;;25.38;51.28;101046.06;5093012;27;67673;-57
2023/09/11 05:59:10;;;;;;;;;11.33;11.33;;;;;25.38;51.34;101052.38;5088770;27;59342;-57
2023/09/11 06:01:35;;;;;;;;;13.67;13.67;;;;;25.41;51.17;101053.91;5085223;27;71340;-57
2023/09/11 06:04:00;;;;;;;;;10.33;10.33;;;;;25.43;51.40;101052.75;5078873;27;66549;-57
2023/09/11 06:06:26;;;;;;;;;14.33;14.00;;;;;25.46;51.44;101059.72;5092729;27;45539;-57
2023/09/11 06:08:51;;;;;;;;;18.00;15.67;;;;;25.52;51.06;101064.47;5081128;27;66899;-57
2023/09/11 06:11:16;;;;;;;;;14.67;11.33;;;;;25.55;50.89;101061.41;5082595;27;47062;-58
2023/09/11 06:13:42;;;;;;;;;12.00;12.00;;;;;25.62;50.84;101063.44;5090730;27;65193;-57
2023/09/11 06:16:07;;;;;;;;;15.00;13.67;;;;;25.66;51.18;101067.56;5088408;27;59601;-58
2023/09/11 06:18:32;;;;;;;;;15.67;14.00;;;;;25.72;50.96;101069.56;5087621;27;45353;-58
2023/09/11 06:20:58;;;;;;;;;15.33;14.00;;;;;25.79;50.65;101070.63;5075207;27;49293;-58
2023/09/11 06:23:23;;;;;;;;;17.33;13.67;;;;;25.86;50.31;101066.16;5082691;27;45232;-58
2023/09/11 06:25:49;;;;;;;;;14.67;13.00;;;;;26.03;49.92;101074.34;5069430;27;70734;-58
2023/09/11 06:28:14;;;;;;;;;14.33;11.33;;;;;26.43;50.02;101075.31;5087018;27;68047;-58
2023/09/11 06:30:39;;;;;;;;;15.67;15.00;;;;;27.45;48.79;101063.63;5089261;27;55940;-58
2023/09/11 06:33:05;;;;;;;;;20.33;14.67;;;;;28.74;47.15;101059.19;5081707;27;68181;-58
2023/09/11 06:35:30;;;;;;;;;18.67;14.00;;;;;30.09;44.76;101065.88;5089826;27;45310;-58
2023/09/11 06:37:55;;;;;;;;;16.00;15.00;;;;;31.42;42.24;101062.09;5093104;27;57259;-58
2023/09/11 06:40:21;;;;;;;;;14.00;14.00;;;;;32.69;40.31;101060.34;5092806;27;45462;-58
2023/09/11 06:42:46;;;;;;;;;16.33;12.00;;;;;33.69;38.30;101062.56;5086873;27;45861;-58
2023/09/11 06:45:11;;;;;;;;;15.33;13.33;;;;;33.50;37.02;101067.13;5082315;27;69099;-58
2023/09/11 06:47:37;;;;;;;;;18.33;16.00;;;;;32.53;38.17;101073.50;5079070;27;72414;-58
2023/09/11 06:50:02;;;;;;;;;15.67;15.67;;;;;32.87;38.66;101068.75;5068673;27;45379;-59
2023/09/11 06:52:28;;;;;;;;;16.33;15.33;;;;;34.17;37.24;101066.63;5094904;27;45787;-58
2023/09/11 06:54:54;;;;;;;;;16.67;14.33;;;;;35.58;35.60;101054.66;5081176;27;62557;-59
2023/09/11 06:57:20;;;;;;;;;18.33;17.00;;;;;36.81;33.90;101063.28;5078698;27;45578;-58
2023/09/11 06:59:45;;;;;;;;;18.33;15.67;;;;;37.88;32.33;101063.63;5083564;27;45473;-58
2023/09/11 07:02:10;;;;;;;;;15.33;14.00;;;;;38.64;31.05;101073.31;5095210;27;58625;-60
2023/09/11 07:04:36;;;;;;;;;17.00;17.00;;;;;37.73;30.89;101075.25;5096210;27;45488;-58
2023/09/11 07:07:01;;;;;;;;;19.33;15.33;;;;;36.06;32.14;101074.94;5088286;27;46129;-59
2023/09/11 07:09:26;;;;;;;;;19.00;17.67;;;;;34.60;33.42;101081.44;5085984;27;45483;-59
2023/09/11 07:11:56;;;;;;;;;14.00;12.67;;;;;33.40;34.89;101084.19;5096926;27;65462;-59
2023/09/11 07:14:22;;;;;;;;;16.67;16.33;;;;;32.45;36.20;101082.84;5095346;27;45436;-59
2023/09/11 07:16:48;;;;;;;;;18.33;17.00;;;;;31.73;37.81;101073.56;5081578;27;45406;-59
2023/09/11 07:19:13;;;;;;;;;17.67;15.67;;;;;31.16;38.70;101082.94;5080635;27;45489;-58
2023/09/11 07:21:40;;;;;;;;;17.33;14.67;;;;;30.75;39.07;101091.19;5083235;27;45864;-58
2023/09/11 07:24:06;;;;;;;;;20.33;18.67;;;;;30.45;39.89;101089.50;5095361;27;45372;-58
2023/09/11 07:26:31;;;;;;;;;19.67;18.33;;;;;30.28;39.99;101086.25;5090250;27;45965;-58
2023/09/11 07:28:59;;;;;;;;;19.67;16.00;;;;;30.12;40.21;101081.91;5080480;27;69102;-59
2023/09/11 07:31:25;;;;;;;;;16.00;16.00;;;;;29.94;40.79;101079.66;5089849;27;45357;-59
2023/09/11 07:33:50;;;;;;;;;22.00;18.33;;;;;29.74;41.56;101074.00;5082823;27;45577;-58
2023/09/11 07:36:17;;;;;;;;;17.33;17.33;;;;;29.52;41.62;101064.94;5089227;27;45973;-58
2023/09/11 07:38:44;;;;;;;;;18.33;16.33;;;;;29.35;41.94;101062.44;5087626;27;45812;-58
2023/09/11 07:41:19;;;;;;;;;13.67;13.67;;;;;29.20;42.51;101076.16;5084575;27;45451;-58
2023/09/11 07:43:51;;;;;;;;;16.67;13.67;;;;;29.11;42.34;101069.13;5081683;27;45480;-58
2023/09/11 07:46:19;;;;;;;;;18.00;18.00;;;;;29.03;42.51;101067.34;5080021;27;45407;-58
2023/09/11 07:48:44;;;;;;;;;17.67;14.67;;;;;28.96;42.85;101071.88;5080496;27;45403;-58
2023/09/11 07:51:10;;;;;;;;;15.67;14.33;;;;;28.91;42.65;101074.34;5087777;27;45470;-58
2023/09/11 07:53:35;;;;;;;;;16.00;15.67;;;;;28.90;42.80;101085.47;5083497;27;59484;-58
2023/09/11 07:56:05;;;;;;;;;12.00;11.67;;;;;28.92;42.59;101078.78;5082413;27;46188;-58
2023/09/11 07:58:30;;;;;;;;;12.33;10.33;;;;;28.98;42.62;101085.38;5081176;27;45354;-58
2023/09/11 08:00:55;;;;;;;;;8.00;8.00;;;;;29.00;41.94;101086.88;5081820;27;59894;-58
2023/09/11 08:03:21;;;;;;;;;13.00;11.00;;;;;29.03;42.55;101091.97;5079413;27;67954;-58
2023/09/11 08:05:46;;;;;;;;;12.33;11.67;;;;;29.03;42.60;101088.38;5083251;27;45375;-58
2023/09/11 08:08:12;;;;;;;;;12.00;10.00;;;;;28.94;41.86;101100.47;5100492;27;45382;-58
2023/09/11 08:10:37;;;;;;;;;9.67;9.00;;;;;28.81;42.71;101088.34;5068505;27;45319;-58
2023/09/11 08:13:03;;;;;;;;;11.00;9.00;;;;;28.69;42.47;101089.84;5081258;27;45554;-58
2023/09/11 08:15:29;;;;;;;;;13.33;11.00;;;;;28.62;42.93;101088.88;5093803;27;45409;-58
2023/09/11 08:17:55;;;;;;;;;12.67;10.33;;;;;28.57;42.87;101085.88;5097912;27;45442;-58
2023/09/11 08:20:20;;;;;;;;;12.00;11.00;;;;;28.57;42.96;101092.16;5089578;27;45573;-58
2023/09/11 08:22:45;;;;;;;;;15.33;12.33;;;;;28.59;43.61;101094.72;5097955;27;65860;-58
2023/09/11 08:25:12;;;;;;;;;10.33;10.33;;;;;28.64;43.65;101098.59;5090465;27;56098;-58
2023/09/11 08:27:37;;;;;;;;;15.00;12.00;;;;;28.80;43.14;101092.09;5066385;27;45465;-58
2023/09/11 08:30:05;;;;;;;;;14.00;13.33;;;;;28.94;43.24;101089.53;5065138;27;59175;-58
2023/09/11 08:32:30;;;;;;;;;13.33;10.00;;;;;29.02;42.19;101098.50;5097873;27;45381;-58
2023/09/11 08:34:55;;;;;;;;;17.33;12.67;;;;;29.09;42.35;101093.09;5083363;27;46340;-58
2023/09/11 08:37:26;;;;;;;;;11.33;9.67;;;;;29.15;42.93;101100.53;5086120;27;51488;-58
2023/09/11 08:39:52;;;;;;;;;11.33;9.00;;;;;29.23;42.06;101094.09;5095452;27;45543;-58
2023/09/11 08:42:18;;;;;;;;;13.00;12.00;;;;;29.36;41.92;101102.50;5085874;27;45618;-58
2023/09/11 08:44:43;;;;;;;;;9.00;9.00;;;;;29.51;41.78;101088.72;5078551;27;48420;-58
2023/09/11 08:47:09;;;;;;;;;10.00;8.33;;;;;29.52;41.33;101095.06;5095073;27;69980;-58
2023/09/11 08:49:44;;;;;;;;;14.00;11.33;;;;;29.50;41.17;101092.53;5089383;27;45418;-58
2023/09/11 08:52:12;;;;;;;;;11.67;9.67;;;;;29.41;41.51;101093.69;5095992;27;45657;-58
2023/09/11 08:54:41;;;;;;;;;9.67;9.67;;;;;29.34;41.90;101098.25;5090327;27;47028;-58
2023/09/11 08:57:07;;;;;;;;;10.33;10.00;;;;;29.29;41.85;101095.25;5095126;27;45325;-58
2023/09/11 08:59:36;;;;;;;;;8.67;8.67;;;;;29.26;41.65;101095.59;5086056;27;45434;-58
2023/09/11 09:02:01;;;;;;;;;8.00;8.00;;;;;29.47;41.87;101092.91;5096504;27;45497;-58
2023/09/11 09:04:28;;;;;;;;;10.00;10.00;;;;;29.65;41.01;101099.84;5084966;27;56287;-58
2023/09/11 09:06:53;;;;;;;;;11.33;8.33;;;;;29.62;41.38;101100.22;5072213;27;45449;-58
2023/09/11 09:09:19;;;;;;;;;11.00;9.67;;;;;29.49;41.46;101106.41;5069724;27;62315;-58
2023/09/11 09:11:48;;;;;;;;;9.67;9.33;;;;;29.33;41.77;101107.50;5084013;27;69342;-59
2023/09/11 09:14:18;;;;;;;;;10.00;10.00;;;;;29.21;41.42;101105.22;5098214;27;46178;-58
2023/09/11 09:16:47;;;;;;;;;7.33;7.33;;;;;29.19;41.71;101104.59;5099022;27;45351;-58
2023/09/11 09:19:12;;;;;;;;;9.33;9.00;;;;;29.23;41.33;101105.06;5095297;27;45256;-58
2023/09/11 09:22:06;;;;;;;;;7.33;7.33;;;;;29.29;41.15;101103.47;5098840;27;69161;-58
2023/09/11 09:24:37;;;;;;;;;13.33;9.33;;;;;29.40;41.87;101110.31;5096213;27;45489;-58
2023/09/11 09:27:04;;;;;;;;;8.33;8.00;;;;;29.76;41.56;101121.22;5096263;27;45382;-58
2023/09/11 09:29:34;;;;;;;;;10.00;9.00;;;;;30.07;41.29;101149.38;5097557;27;45477;-58
2023/09/11 09:32:00;;;;;;;;;11.00;10.67;;;;;30.35;39.88;101193.25;5095035;27;45358;-58
2023/09/11 09:34:26;;;;;;;;;8.67;8.67;;;;;30.87;40.05;101202.13;5085345;27;46145;-58
2023/09/11 09:36:55;;;;;;;;;13.33;12.67;;;;;31.42;39.15;101196.72;5085006;27;45397;-58
2023/09/11 09:39:21;;;;;;;;;11.00;10.67;;;;;31.36;39.12;101194.78;5082076;27;45405;-58
2023/09/11 09:41:54;;;;;;;;;14.67;13.33;;;;;31.10;39.59;101212.00;5089703;27;45501;-58
2023/09/11 09:44:34;;;;;;;;;11.67;11.33;;;;;30.82;39.95;101197.25;5089259;27;47176;-58
2023/09/11 09:47:10;;;;;;;;;16.33;14.33;;;;;30.63;40.17;101197.97;5092260;27;45369;-58
2023/09/11 09:49:55;;;;;;;;;11.00;11.00;;;;;30.37;40.48;101191.19;5086618;27;45363;-58
2023/09/11 09:52:25;;;;;;;;;9.67;9.67;;;;;30.07;41.27;101194.09;5082338;27;45463;-58
2023/09/11 09:54:52;;;;;;;;;13.00;10.33;;;;;29.74;41.17;101204.69;5077671;27;48074;-58
2023/09/11 09:57:19;;;;;;;;;11.00;11.00;;;;;29.49;41.34;101192.19;5089827;27;45340;-58
2023/09/11 09:59:59;;;;;;;;;11.00;10.67;;;;;29.33;41.88;101201.50;5092499;27;45531;-58
2023/09/11 10:02:27;;;;;;;;;11.00;11.00;;;;;29.18;42.38;101185.03;5081972;27;45565;-58
2023/09/11 10:04:54;;;;;;;;;11.00;11.00;;;;;29.13;42.18;101168.31;5086228;27;46309;-58
2023/09/11 10:07:40;;;;;;;;;11.00;11.00;;;;;29.30;42.21;101149.81;5048065;27;45697;-58
2023/09/11 10:10:22;;;;;;;;;7.00;6.33;;;;;30.01;41.87;101156.47;5097880;27;45495;-58
2023/09/11 10:13:01;;;;;;;;;12.00;10.00;;;;;30.87;40.62;101168.34;5084393;27;45407;-58
2023/09/11 10:15:27;;;;;;;;;11.00;10.00;;;;;31.46;40.24;101162.28;5079502;27;47083;-58
2023/09/11 10:17:54;;;;;;;;;11.67;9.33;;;;;31.96;39.38;101161.97;5081246;27;45666;-59
2023/09/11 10:20:20;;;;;;;;;9.33;9.00;;;;;32.55;38.57;101161.38;5094612;27;45417;-59
2023/09/11 10:22:46;;;;;;;;;9.00;9.00;;;;;33.04;38.08;101165.50;5090558;27;45412;-59
2023/09/11 10:25:11;;;;;;;;;9.00;9.00;;;;;33.41;37.02;101156.69;5093843;27;72567;-59
2023/09/11 10:27:37;;;;;;;;;7.75;7.50;;;;;33.59;36.69;101145.75;5094669;27;56635;-58
2023/09/11 10:30:04;;;;;;;;;5.33;5.33;;;;;33.42;36.30;101131.66;5094940;27;45320;-58
2023/09/11 10:32:38;;;;;;;;;8.00;8.00;;;;;33.07;36.33;101129.25;5093336;27;45299;-58
2023/09/11 10:35:05;;;;;;;;;11.00;8.00;;;;;32.76;37.03;101132.75;5062122;27;46244;-59
2023/09/11 10:37:31;;;;;;;;;9.00;8.00;;;;;32.45;37.29;101120.50;5069088;27;45424;-59
2023/09/11 10:39:59;;;;;;;;;9.00;9.00;;;;;32.14;37.75;101120.09;5078431;27;45374;-59
2023/09/11 10:42:24;;;;;;;;;10.33;9.00;;;;;31.88;37.88;101120.94;5088453;27;69391;-59
2023/09/11 10:44:52;;;;;;;;;7.00;7.00;;;;;31.99;38.10;101131.31;5079299;27;75539;-59
2023/09/11 10:47:19;;;;;;;;;6.67;6.67;;;;;32.23;37.68;101140.03;5094508;27;45471;-59
2023/09/11 10:49:48;;;;;;;;;6.50;6.50;;;;;32.53;37.40;101146.94;5084458;27;45469;-59
2023/09/11 10:52:14;;;;;;;;;7.67;7.67;;;;;32.78;37.17;101155.41;5093609;27;45406;-58
2023/09/11 10:54:40;;;;;;;;;5.00;5.00;;;;;33.09;36.62;101162.06;5070113;27;47784;-59
2023/09/11 10:57:05;;;;;;;;;7.67;7.67;;;;;33.29;36.50;101175.81;5095661;27;62402;-59
2023/09/11 10:59:31;;;;;;;;;5.67;5.67;;;;;33.18;35.85;101166.31;5091617;27;45446;-59
2023/09/11 11:01:58;;;;;;;;;6.00;6.00;;;;;33.32;35.93;101169.84;5083282;27;45419;-58
2023/09/11 11:04:24;;;;;;;;;5.50;4.75;;;;;33.32;36.11;101158.84;5075958;27;46159;-58
2023/09/11 11:06:53;;;;;;;;;5.00;5.00;;;;;33.04;35.77;101157.22;5100142;27;45346;-58
2023/09/11 11:09:26;;;;;;;;;4.00;4.00;;;;;32.82;36.34;101149.25;5083512;27;45486;-58